Time;durP1;ratioP1;P1;durP2;ratioP2;P2;SDS_P1;SDS_P2;PMS_P1;PMS_P2;Temp;Humidity;BMP_temperature;BMP_pressure;BME280_temperature;BME280_humidity;BME280_pressure;Samples;Min_cycle;Max_cycle;Signal;HPM_P1;HPM_P2
2023/08/15 00:01:25;;;;;;;;;1.00;1.00;;;;;;;;5040889;28;45489;-94
2023/08/15 00:03:50;;;;;;;;;1.00;1.00;;;;;;;;5042635;28;46278;-94
2023/08/15 00:06:17;;;;;;;;;1.00;1.00;;;;;;;;5063811;28;45324;-95
2023/08/15 00:08:42;;;;;;;;;2.00;2.00;;;;;;;;5039306;28;45383;-95
2023/08/15 00:11:07;;;;;;;;;2.00;2.00;;;;;;;;5042460;28;45478;-94
2023/08/15 00:13:33;;;;;;;;;0.67;0.67;;;;;;;;5039741;28;45456;-96
2023/08/15 00:15:58;;;;;;;;;1.00;1.00;;;;;;;;5021763;28;46997;-95
2023/08/15 00:18:23;;;;;;;;;2.00;2.00;;;;;;;;5039369;28;45455;-95
2023/08/15 00:20:48;;;;;;;;;1.33;1.33;;;;;;;;5055947;28;45160;-95
2023/08/15 00:23:14;;;;;;;;;2.00;2.00;;;;;;;;5076725;28;8864;-95
2023/08/15 00:25:39;;;;;;;;;3.33;2.00;;;;;;;;5058976;28;45272;-96
2023/08/15 00:28:05;;;;;;;;;2.00;2.00;;;;;;;;5057616;28;45414;-95
2023/08/15 00:30:32;;;;;;;;;1.67;1.67;;;;;;;;5075847;28;8809;-95
2023/08/15 00:32:58;;;;;;;;;1.75;1.75;;;;;;;;5076016;28;8905;-95
2023/08/15 00:35:23;;;;;;;;;2.67;2.00;;;;;;;;5057616;28;8830;-95
2023/08/15 00:37:48;;;;;;;;;2.00;2.00;;;;;;;;5076843;28;8819;-95
2023/08/15 00:40:13;;;;;;;;;2.33;2.33;;;;;;;;5072982;28;8858;-95
2023/08/15 00:42:39;;;;;;;;;0.67;0.67;;;;;;;;5075918;28;8951;-95
2023/08/15 00:45:04;;;;;;;;;1.00;1.00;;;;;;;;5076797;28;8841;-95
2023/08/15 00:47:30;;;;;;;;;2.33;2.33;;;;;;;;5073845;28;9636;-96
2023/08/15 00:49:55;;;;;;;;;1.00;1.00;;;;;;;;5056986;28;8806;-95
2023/08/15 00:52:21;;;;;;;;;0.67;0.67;;;;;;;;5075067;28;8813;-95
2023/08/15 00:54:47;;;;;;;;;1.33;1.33;;;;;;;;5076100;28;8833;-95
2023/08/15 00:57:13;;;;;;;;;0.75;0.75;;;;;;;;5056190;28;8882;-95
2023/08/15 00:59:41;;;;;;;;;2.00;2.00;;;;;;;;5074809;28;8837;-95
2023/08/15 01:02:06;;;;;;;;;2.25;2.25;;;;;;;;5073625;28;8783;-95
2023/08/15 01:04:34;;;;;;;;;2.67;0.67;;;;;;;;5076378;28;8856;-95
2023/08/15 01:06:59;;;;;;;;;1.75;1.75;;;;;;;;5055789;28;9674;-95
2023/08/15 01:09:25;;;;;;;;;2.00;2.00;;;;;;;;5072792;28;8777;-96
2023/08/15 01:12:06;;;;;;;;;1.00;1.00;;;;;;;;5058130;28;8828;-96
2023/08/15 01:14:36;;;;;;;;;2.00;2.00;;;;;;;;5076308;28;8778;-95
2023/08/15 01:17:04;;;;;;;;;1.00;1.00;;;;;;;;5076177;28;8812;-95
2023/08/15 01:19:38;;;;;;;;;1.75;1.75;;;;;;;;5075569;28;8771;-96
2023/08/15 01:22:09;;;;;;;;;1.00;1.00;;;;;;;;5076289;28;8724;-94
2023/08/15 01:24:34;;;;;;;;;0.75;0.75;;;;;;;;5072266;28;8763;-95
2023/08/15 01:26:59;;;;;;;;;5.67;2.00;;;;;;;;5074611;28;8830;-95
2023/08/15 01:29:25;;;;;;;;;0.67;0.67;;;;;;;;5074073;28;8814;-95
2023/08/15 01:32:00;;;;;;;;;1.67;1.67;;;;;;;;5056267;28;8845;-95
2023/08/15 01:34:28;;;;;;;;;1.75;1.75;;;;;;;;5074341;28;8783;-95
2023/08/15 01:37:00;;;;;;;;;1.75;1.75;;;;;;;;5071155;28;8767;-95
2023/08/15 01:39:29;;;;;;;;;1.00;1.00;;;;;;;;5072268;28;8919;-96
2023/08/15 01:41:56;;;;;;;;;1.00;1.00;;;;;;;;5073366;28;8863;-94
2023/08/15 01:44:22;;;;;;;;;2.50;2.50;;;;;;;;5072982;28;8803;-95
2023/08/15 01:46:48;;;;;;;;;2.00;2.00;;;;;;;;5073000;28;8789;-95
2023/08/15 01:49:13;;;;;;;;;1.33;1.33;;;;;;;;5073416;28;8815;-95
2023/08/15 01:51:39;;;;;;;;;1.67;1.67;;;;;;;;5063643;28;10821;-95
2023/08/15 01:54:04;;;;;;;;;2.33;2.33;;;;;;;;5056311;28;8835;-95
2023/08/15 01:56:29;;;;;;;;;2.00;2.00;;;;;;;;5073817;28;8789;-96
2023/08/15 01:58:54;;;;;;;;;2.00;2.00;;;;;;;;5071088;28;8902;-95
2023/08/15 02:01:20;;;;;;;;;1.00;1.00;;;;;;;;5074954;28;8948;-95
2023/08/15 02:03:45;;;;;;;;;2.00;2.00;;;;;;;;5057463;28;45150;-95
2023/08/15 02:06:10;;;;;;;;;2.00;2.00;;;;;;;;5039874;28;45387;-95
2023/08/15 02:08:35;;;;;;;;;2.33;2.33;;;;;;;;5039037;28;45370;-95
2023/08/15 02:11:00;;;;;;;;;2.33;2.33;;;;;;;;5021267;28;45435;-94
2023/08/15 02:13:30;;;;;;;;;4.00;4.00;;;;;;;;5040235;28;45409;-95
2023/08/15 02:15:55;;;;;;;;;2.67;2.67;;;;;;;;5037700;28;46518;-96
2023/08/15 02:18:21;;;;;;;;;3.67;3.67;;;;;;;;5038747;28;45406;-95
2023/08/15 02:20:46;;;;;;;;;5.67;5.67;;;;;;;;5038430;28;45460;-95
2023/08/15 02:23:12;;;;;;;;;4.00;4.00;;;;;;;;5039810;28;48439;-95
2023/08/15 02:25:38;;;;;;;;;4.33;4.00;;;;;;;;5039549;28;45446;-95
2023/08/15 02:28:03;;;;;;;;;3.00;3.00;;;;;;;;5027206;28;45438;-94
2023/08/15 02:30:29;;;;;;;;;4.00;4.00;;;;;;;;5069730;28;43149;-95
2023/08/15 02:32:54;;;;;;;;;3.50;3.50;;;;;;;;5073224;28;8833;-95
2023/08/15 02:35:20;;;;;;;;;2.00;2.00;;;;;;;;5075024;28;8876;-95
2023/08/15 02:37:45;;;;;;;;;5.00;5.00;;;;;;;;5056909;28;8787;-95
2023/08/15 02:40:10;;;;;;;;;3.00;3.00;;;;;;;;5071546;28;8807;-95
2023/08/15 02:42:35;;;;;;;;;3.67;3.67;;;;;;;;5069998;28;8891;-95
2023/08/15 02:45:01;;;;;;;;;2.67;2.67;;;;;;;;5050788;28;44600;-95
2023/08/15 02:47:26;;;;;;;;;2.00;2.00;;;;;;;;5069247;28;44722;-95
2023/08/15 02:49:53;;;;;;;;;4.00;4.00;;;;;;;;5018773;28;45519;-95
2023/08/15 02:52:19;;;;;;;;;6.33;4.00;;;;;;;;5039910;28;46605;-95
2023/08/15 02:54:44;;;;;;;;;1.00;1.00;;;;;;;;5038744;28;45646;-95
2023/08/15 02:57:09;;;;;;;;;3.00;3.00;;;;;;;;5041374;28;45521;-95
2023/08/15 02:59:34;;;;;;;;;3.00;3.00;;;;;;;;5041030;28;45610;-95
2023/08/15 03:02:00;;;;;;;;;2.00;2.00;;;;;;;;5043271;28;46207;-95
2023/08/15 03:04:25;;;;;;;;;2.67;2.67;;;;;;;;5043147;28;45469;-96
2023/08/15 03:06:50;;;;;;;;;2.33;2.33;;;;;;;;5043088;28;45589;-95
2023/08/15 03:09:16;;;;;;;;;2.00;2.00;;;;;;;;5040022;28;45416;-96
2023/08/15 03:11:42;;;;;;;;;3.67;3.67;;;;;;;;5044873;28;46415;-95
2023/08/15 03:14:07;;;;;;;;;2.00;2.00;;;;;;;;5043224;28;45454;-96
2023/08/15 03:16:32;;;;;;;;;4.00;4.00;;;;;;;;5043615;28;45405;-95
2023/08/15 03:18:58;;;;;;;;;2.00;2.00;;;;;;;;5046725;28;46395;-95
2023/08/15 03:21:23;;;;;;;;;2.00;2.00;;;;;;;;5044413;28;45378;-95
2023/08/15 03:23:48;;;;;;;;;2.67;2.67;;;;;;;;5072460;28;45447;-95
2023/08/15 03:26:13;;;;;;;;;2.00;2.00;;;;;;;;5069563;28;44800;-95
2023/08/15 03:28:39;;;;;;;;;2.00;2.00;;;;;;;;5042006;28;45487;-95
2023/08/15 03:31:05;;;;;;;;;1.67;1.67;;;;;;;;5042020;28;45484;-96
2023/08/15 03:33:30;;;;;;;;;2.00;2.00;;;;;;;;5041698;28;45410;-94
2023/08/15 03:35:56;;;;;;;;;1.00;1.00;;;;;;;;5024842;28;45400;-95
2023/08/15 03:38:21;;;;;;;;;1.67;1.67;;;;;;;;5021191;28;45343;-95
2023/08/15 03:40:47;;;;;;;;;1.67;1.67;;;;;;;;5041196;28;45659;-96
2023/08/15 03:43:13;;;;;;;;;2.00;2.00;;;;;;;;5021927;28;45423;-95
2023/08/15 03:45:38;;;;;;;;;2.00;2.00;;;;;;;;5041735;28;45389;-95
2023/08/15 03:48:04;;;;;;;;;2.00;2.00;;;;;;;;5041042;28;45436;-95
2023/08/15 03:50:39;;;;;;;;;2.00;2.00;;;;;;;;5042419;28;45756;-95
2023/08/15 03:53:04;;;;;;;;;1.67;1.67;;;;;;;;5041204;28;45428;-95
2023/08/15 03:55:30;;;;;;;;;1.00;0.00;;;;;;;;5020062;28;45524;-95
2023/08/15 03:57:56;;;;;;;;;2.00;2.00;;;;;;;;5038139;28;45749;-95
2023/08/15 04:00:21;;;;;;;;;3.00;3.00;;;;;;;;5028066;28;48065;-95
2023/08/15 04:02:47;;;;;;;;;1.00;1.00;;;;;;;;5031689;28;45576;-95
2023/08/15 04:05:12;;;;;;;;;1.00;1.00;;;;;;;;5010293;28;45558;-96
2023/08/15 04:07:38;;;;;;;;;1.00;1.00;;;;;;;;5030114;28;45435;-95
2023/08/15 04:10:03;;;;;;;;;2.00;2.00;;;;;;;;5022709;28;46526;-95
2023/08/15 04:12:28;;;;;;;;;1.33;1.33;;;;;;;;5030535;28;46348;-95
2023/08/15 04:14:53;;;;;;;;;1.00;1.00;;;;;;;;5027203;28;45534;-95
2023/08/15 04:17:19;;;;;;;;;0.67;0.67;;;;;;;;5029369;28;46378;-95
2023/08/15 04:19:44;;;;;;;;;3.00;3.00;;;;;;;;5023506;28;45495;-95
2023/08/15 04:22:10;;;;;;;;;2.33;1.67;;;;;;;;5036065;28;45406;-96
2023/08/15 04:24:35;;;;;;;;;2.00;2.00;;;;;;;;5009369;28;45444;-95
2023/08/15 04:27:00;;;;;;;;;2.00;2.00;;;;;;;;5011272;28;45618;-95
2023/08/15 04:29:25;;;;;;;;;2.00;2.00;;;;;;;;5028384;28;45475;-96
2023/08/15 04:31:51;;;;;;;;;1.00;1.00;;;;;;;;5025150;28;45503;-95
2023/08/15 04:34:16;;;;;;;;;1.67;1.67;;;;;;;;5035883;28;45468;-95
2023/08/15 04:36:44;;;;;;;;;2.00;2.00;;;;;;;;5039737;28;45340;-94
2023/08/15 04:39:10;;;;;;;;;1.00;1.00;;;;;;;;5023213;28;45418;-95
2023/08/15 04:41:35;;;;;;;;;1.33;1.33;;;;;;;;5028346;28;45512;-95
2023/08/15 04:44:00;;;;;;;;;2.00;2.00;;;;;;;;5032374;28;45494;-95
2023/08/15 04:46:26;;;;;;;;;1.33;1.33;;;;;;;;5043812;28;27180;-95
2023/08/15 04:48:51;;;;;;;;;1.67;1.67;;;;;;;;5059124;28;8897;-96
2023/08/15 04:51:16;;;;;;;;;0.67;0.67;;;;;;;;5064277;28;8830;-95
2023/08/15 04:53:41;;;;;;;;;1.67;1.67;;;;;;;;5062224;28;8835;-95
2023/08/15 04:56:07;;;;;;;;;2.00;2.00;;;;;;;;5068408;28;8831;-95
2023/08/15 04:58:32;;;;;;;;;1.33;1.33;;;;;;;;5041009;28;8843;-94
2023/08/15 05:00:57;;;;;;;;;1.67;1.67;;;;;;;;5043236;28;8839;-95
2023/08/15 05:03:22;;;;;;;;;2.00;2.00;;;;;;;;5076655;28;8900;-95
2023/08/15 05:05:48;;;;;;;;;3.33;2.00;;;;;;;;5074654;28;8822;-96
2023/08/15 05:08:13;;;;;;;;;2.00;2.00;;;;;;;;5074912;28;8804;-95
2023/08/15 05:10:38;;;;;;;;;1.00;1.00;;;;;;;;5076017;28;8817;-95
2023/08/15 05:13:04;;;;;;;;;2.00;2.00;;;;;;;;5076363;28;8794;-95
2023/08/15 05:15:29;;;;;;;;;3.00;1.67;;;;;;;;5075318;28;8903;-95
2023/08/15 05:17:54;;;;;;;;;5.33;2.00;;;;;;;;5056903;28;8904;-95
2023/08/15 05:20:19;;;;;;;;;1.00;1.00;;;;;;;;5072704;28;8781;-95
2023/08/15 05:22:45;;;;;;;;;2.33;2.33;;;;;;;;5073963;28;8892;-95
2023/08/15 05:25:10;;;;;;;;;2.00;2.00;;;;;;;;5075656;28;8806;-95
2023/08/15 05:27:36;;;;;;;;;1.00;1.00;;;;;;;;5074815;28;8813;-95
2023/08/15 05:30:01;;;;;;;;;1.00;1.00;;;;;;;;5057852;28;8870;-95
2023/08/15 05:32:26;;;;;;;;;1.00;1.00;;;;;;;;5073644;28;8797;-94
2023/08/15 05:34:52;;;;;;;;;3.00;3.00;;;;;;;;5075974;28;8825;-95
2023/08/15 05:37:17;;;;;;;;;3.00;3.00;;;;;;;;5074103;28;8827;-95
2023/08/15 05:39:42;;;;;;;;;1.67;1.67;;;;;;;;5074460;28;8813;-95
2023/08/15 05:42:08;;;;;;;;;0.67;0.67;;;;;;;;5055129;28;8863;-95
2023/08/15 05:44:33;;;;;;;;;0.00;0.00;;;;;;;;5074468;28;8813;-96
2023/08/15 05:46:58;;;;;;;;;2.67;1.00;;;;;;;;5074872;28;8789;-95
2023/08/15 05:49:23;;;;;;;;;1.00;1.00;;;;;;;;5057113;28;8915;-95
2023/08/15 05:51:49;;;;;;;;;1.33;1.33;;;;;;;;5075717;28;8809;-95
2023/08/15 05:54:14;;;;;;;;;2.33;2.33;;;;;;;;5070692;28;8849;-95
2023/08/15 05:56:40;;;;;;;;;3.33;1.00;;;;;;;;5073898;28;8783;-94
2023/08/15 05:59:05;;;;;;;;;1.50;1.50;;;;;;;;5075567;28;8793;-95
2023/08/15 06:01:30;;;;;;;;;1.00;1.00;;;;;;;;5071686;28;8888;-95
2023/08/15 06:03:56;;;;;;;;;2.00;2.00;;;;;;;;5047327;28;8857;-95
2023/08/15 06:06:21;;;;;;;;;2.33;2.00;;;;;;;;5073837;28;8813;-95
2023/08/15 06:08:47;;;;;;;;;1.00;1.00;;;;;;;;5065493;28;9068;-95
2023/08/15 06:11:12;;;;;;;;;2.33;2.33;;;;;;;;5076818;28;8856;-95
2023/08/15 06:13:37;;;;;;;;;1.00;1.00;;;;;;;;5073709;28;8912;-95
2023/08/15 06:16:03;;;;;;;;;1.00;1.00;;;;;;;;5076548;28;8825;-95
2023/08/15 06:18:28;;;;;;;;;1.00;1.00;;;;;;;;5076643;28;8809;-95
2023/08/15 06:20:53;;;;;;;;;2.00;2.00;;;;;;;;5062538;28;24843;-96
2023/08/15 06:23:18;;;;;;;;;2.00;2.00;;;;;;;;5075165;28;8902;-95
2023/08/15 06:25:43;;;;;;;;;2.00;2.00;;;;;;;;5076328;28;8857;-96
2023/08/15 06:28:09;;;;;;;;;1.00;1.00;;;;;;;;5076798;28;8806;-96
2023/08/15 06:30:34;;;;;;;;;1.67;1.67;;;;;;;;5060488;28;8904;-95
2023/08/15 06:32:59;;;;;;;;;1.00;1.00;;;;;;;;5074871;28;9633;-95
2023/08/15 06:35:28;;;;;;;;;1.33;1.00;;;;;;;;5074235;28;8951;-95
2023/08/15 06:37:53;;;;;;;;;1.00;1.00;;;;;;;;5045594;28;8831;-96
2023/08/15 06:40:19;;;;;;;;;1.00;1.00;;;;;;;;5073253;28;8829;-95
2023/08/15 06:42:44;;;;;;;;;1.00;1.00;;;;;;;;5070915;28;44749;-95
2023/08/15 06:45:11;;;;;;;;;2.00;2.00;;;;;;;;5074597;28;8871;-94
2023/08/15 06:47:37;;;;;;;;;1.75;1.75;;;;;;;;5060414;28;8815;-94
2023/08/15 06:50:02;;;;;;;;;1.00;1.00;;;;;;;;5068762;28;8801;-94
2023/08/15 06:52:49;;;;;;;;;2.67;1.67;;;;;;;;5067424;28;8873;-96
2023/08/15 07:00:25;;;;;;;;;0.00;0.00;;;;;;;;6238416;22;8728;-93
2023/08/15 07:02:50;;;;;;;;;0.50;0.50;;;;;;;;5093405;28;9605;-93
2023/08/15 07:11:44;;;;;;;;;0.33;0.33;;;;;;;;4970435;28;45556;-94
2023/08/15 07:14:09;;;;;;;;;0.00;0.00;;;;;;;;5056350;28;45520;-95
2023/08/15 07:16:34;;;;;;;;;0.67;0.67;;;;;;;;5058774;28;47776;-95
2023/08/15 07:19:00;;;;;;;;;0.00;0.00;;;;;;;;5070888;28;45564;-95
2023/08/15 07:21:25;;;;;;;;;0.33;0.33;;;;;;;;5074520;28;45548;-95
2023/08/15 07:26:53;;;;;;;;;0.67;0.67;;;;;;;;5073651;28;45674;-92
2023/08/15 07:29:24;;;;;;;;;1.00;1.00;;;;;;;;5073891;28;46688;-96
2023/08/15 07:31:51;;;;;;;;;0.00;0.00;;;;;;;;5071847;28;45226;-92
2023/08/15 07:34:16;;;;;;;;;0.00;0.00;;;;;;;;5066427;28;45469;-91
2023/08/15 07:36:42;;;;;;;;;0.67;0.67;;;;;;;;5090248;28;45230;-92
2023/08/15 07:39:07;;;;;;;;;0.33;0.33;;;;;;;;5070304;28;45409;-92
2023/08/15 07:41:32;;;;;;;;;0.67;0.67;;;;;;;;5076601;28;45468;-92
2023/08/15 07:43:57;;;;;;;;;0.67;0.67;;;;;;;;5082535;28;45513;-92
2023/08/15 07:46:23;;;;;;;;;0.00;0.00;;;;;;;;5082016;28;46198;-91
2023/08/15 07:48:50;;;;;;;;;2.00;2.00;;;;;;;;5082051;28;45646;-91
2023/08/15 07:51:16;;;;;;;;;2.33;2.33;;;;;;;;5077957;28;47197;-94
2023/08/15 07:53:41;;;;;;;;;1.00;1.00;;;;;;;;5080115;28;45667;-93
2023/08/15 07:56:06;;;;;;;;;1.00;1.00;;;;;;;;5080056;28;45621;-94
2023/08/15 07:58:33;;;;;;;;;1.00;1.00;;;;;;;;5074520;28;45195;-94
2023/08/15 08:00:58;;;;;;;;;0.00;0.00;;;;;;;;5056595;28;45462;-94
2023/08/15 08:03:24;;;;;;;;;2.00;1.00;;;;;;;;5084863;28;45355;-95
2023/08/15 08:06:01;;;;;;;;;;;;;;;;;;;;;
2023/08/15 08:08:27;;;;;;;;;1.00;1.00;;;;;;;;5081536;28;71519;-96
2023/08/15 08:10:52;;;;;;;;;0.67;0.67;;;;;;;;5054994;28;45556;-95
2023/08/15 08:13:26;;;;;;;;;2.00;0.00;;;;;;;;5061408;28;45516;-95
2023/08/15 08:15:51;;;;;;;;;1.00;1.00;;;;;;;;5090294;28;46765;-95
2023/08/15 08:18:19;;;;;;;;;1.00;1.00;;;;;;;;5115883;28;11196;-95
2023/08/15 08:20:56;;;;;;;;;0.00;0.00;;;;;;;;5088378;28;8909;-96
2023/08/15 08:23:23;;;;;;;;;1.00;1.00;;;;;;;;5092688;28;9701;-94
2023/08/15 08:25:48;;;;;;;;;1.00;1.00;;;;;;;;5072383;28;45597;-95
2023/08/15 08:28:14;;;;;;;;;1.00;1.00;;;;;;;;5063799;28;45352;-94
2023/08/15 08:30:42;;;;;;;;;1.00;1.00;;;;;;;;5070399;28;45287;-94
2023/08/15 08:33:07;;;;;;;;;0.00;0.00;;;;;;;;5080280;28;45485;-94
2023/08/15 08:35:33;;;;;;;;;1.00;1.00;;;;;;;;5062780;28;47245;-93
2023/08/15 08:37:58;;;;;;;;;0.67;0.67;;;;;;;;5085712;28;44718;-94
2023/08/15 08:40:23;;;;;;;;;1.00;1.00;;;;;;;;5078019;28;45586;-96
2023/08/15 08:42:49;;;;;;;;;0.00;0.00;;;;;;;;5077808;28;45552;-95
2023/08/15 08:45:14;;;;;;;;;0.00;0.00;;;;;;;;5091823;28;8879;-96
2023/08/15 08:47:40;;;;;;;;;1.33;1.00;;;;;;;;5073397;28;45506;-95
2023/08/15 08:50:11;;;;;;;;;0.33;0.33;;;;;;;;5082302;28;28559;-94
2023/08/15 08:52:52;;;;;;;;;0.00;0.00;;;;;;;;5084753;28;45555;-96
2023/08/15 08:55:20;;;;;;;;;1.00;1.00;;;;;;;;5062205;28;47226;-96
2023/08/15 08:57:49;;;;;;;;;1.00;1.00;;;;;;;;5097146;28;44533;-95
2023/08/15 09:00:16;;;;;;;;;1.50;1.50;;;;;;;;5090135;28;27709;-96
2023/08/15 09:02:43;;;;;;;;;1.00;1.00;;;;;;;;5070638;28;28391;-96
2023/08/15 09:05:09;;;;;;;;;1.00;1.00;;;;;;;;5094709;28;44698;-96
2023/08/15 09:07:35;;;;;;;;;0.00;0.00;;;;;;;;5079535;28;28569;-95
2023/08/15 09:10:00;;;;;;;;;0.00;0.00;;;;;;;;5074380;28;45498;-96
2023/08/15 09:12:31;;;;;;;;;0.00;0.00;;;;;;;;5092197;28;45287;-95
2023/08/15 09:14:57;;;;;;;;;0.25;0.25;;;;;;;;5116478;28;8833;-96
2023/08/15 09:17:27;;;;;;;;;1.00;1.00;;;;;;;;5117395;28;8954;-95
2023/08/15 09:19:56;;;;;;;;;0.00;0.00;;;;;;;;5109645;28;44821;-95
2023/08/15 09:22:24;;;;;;;;;1.00;1.00;;;;;;;;5082503;28;45403;-95
2023/08/15 09:24:50;;;;;;;;;0.00;0.00;;;;;;;;5062326;28;46586;-96
2023/08/15 09:27:16;;;;;;;;;0.00;0.00;;;;;;;;5077045;28;45449;-96
2023/08/15 09:29:41;;;;;;;;;0.00;0.00;;;;;;;;5072149;28;46017;-96
2023/08/15 09:32:07;;;;;;;;;0.00;0.00;;;;;;;;5074138;28;45604;-96
2023/08/15 09:34:35;;;;;;;;;0.00;0.00;;;;;;;;5081032;28;47054;-96
2023/08/15 09:37:03;;;;;;;;;1.00;1.00;;;;;;;;5095640;28;44574;-95
2023/08/15 09:39:31;;;;;;;;;0.00;0.00;;;;;;;;5106068;28;26559;-96
2023/08/15 09:41:56;;;;;;;;;0.00;0.00;;;;;;;;5112901;28;16958;-96
2023/08/15 09:44:32;;;;;;;;;0.00;0.00;;;;;;;;5094679;28;44674;-96
2023/08/15 09:46:58;;;;;;;;;0.00;0.00;;;;;;;;5090382;28;44706;-96
2023/08/15 09:49:25;;;;;;;;;0.00;0.00;;;;;;;;5092765;28;45261;-95
2023/08/15 09:51:50;;;;;;;;;0.00;0.00;;;;;;;;5116699;28;10891;-96
2023/08/15 09:54:18;;;;;;;;;0.00;0.00;;;;;;;;5084877;28;29968;-96
2023/08/15 09:56:46;;;;;;;;;0.00;0.00;;;;;;;;5114257;28;8812;-96
2023/08/15 09:59:14;;;;;;;;;0.00;0.00;;;;;;;;5115539;28;8913;-96
2023/08/15 10:01:40;;;;;;;;;0.00;0.00;;;;;;;;5116334;27;8812;-95
2023/08/15 10:04:10;;;;;;;;;0.00;0.00;;;;;;;;5116780;28;8833;-95
2023/08/15 10:06:36;;;;;;;;;0.25;0.25;;;;;;;;5096974;28;8824;-95
2023/08/15 10:09:03;;;;;;;;;0.00;0.00;;;;;;;;5115824;28;8816;-96
2023/08/15 10:11:30;;;;;;;;;0.25;0.25;;;;;;;;5116688;28;11074;-96
2023/08/15 10:13:56;;;;;;;;;0.50;0.50;;;;;;;;5116802;28;8943;-95
2023/08/15 10:16:22;;;;;;;;;0.00;0.00;;;;;;;;5115139;28;8769;-95
2023/08/15 10:18:52;;;;;;;;;0.00;0.00;;;;;;;;5115160;28;9577;-95
2023/08/15 10:21:17;;;;;;;;;0.50;0.50;;;;;;;;5115842;28;9824;-96
2023/08/15 10:23:45;;;;;;;;;0.00;0.00;;;;;;;;5077417;28;45319;-96
2023/08/15 10:26:15;;;;;;;;;0.00;0.00;;;;;;;;5080995;28;45980;-96
2023/08/15 10:28:41;;;;;;;;;0.00;0.00;;;;;;;;5117134;28;10679;-95
2023/08/15 10:31:08;;;;;;;;;0.00;0.00;;;;;;;;5097804;28;8894;-96
2023/08/15 10:33:33;;;;;;;;;0.00;0.00;;;;;;;;5115202;28;11435;-96
2023/08/15 10:35:58;;;;;;;;;0.00;0.00;;;;;;;;5079282;28;27818;-96
2023/08/15 10:38:27;;;;;;;;;0.00;0.00;;;;;;;;5101620;28;27684;-96
2023/08/15 10:40:55;;;;;;;;;0.00;0.00;;;;;;;;5096823;28;44807;-95
2023/08/15 10:43:25;;;;;;;;;0.00;0.00;;;;;;;;5078767;28;44846;-96
2023/08/15 10:45:52;;;;;;;;;9.67;9.67;;;;;;;;5080384;28;44617;-96
2023/08/15 10:48:38;;;;;;;;;0.00;0.00;;;;;;;;5073917;28;44536;-96
2023/08/15 10:51:04;;;;;;;;;0.00;0.00;;;;;;;;5096941;28;28448;-95
2023/08/15 10:53:30;;;;;;;;;0.00;0.00;;;;;;;;5077604;28;29033;-95
2023/08/15 10:55:58;;;;;;;;;0.00;0.00;;;;;;;;5075703;28;28547;-96
2023/08/15 10:58:28;;;;;;;;;0.00;0.00;;;;;;;;5090314;28;28376;-96
2023/08/15 11:00:58;;;;;;;;;0.00;0.00;;;;;;;;5094472;28;28361;-96
2023/08/15 11:03:29;;;;;;;;;0.00;0.00;;;;;;;;5096112;28;44654;-93
2023/08/15 11:09:40;;;;;;;;;0.00;0.00;;;;;;;;5039728;28;27908;-96
2023/08/15 11:12:37;;;;;;;;;1.00;1.00;;;;;;;;4965229;28;45458;-96
2023/08/15 11:20:31;;;;;;;;;;;;;;;;;;;;;
2023/08/15 11:22:58;;;;;;;;;8.00;8.00;;;;;;;;5068434;28;46795;-94
2023/08/15 11:25:26;;;;;;;;;7.33;7.33;;;;;;;;5046065;28;47345;-94
2023/08/15 11:27:52;;;;;;;;;5.00;5.00;;;;;;;;5059025;28;45549;-93
2023/08/15 11:30:20;;;;;;;;;4.00;4.00;;;;;;;;5057095;28;45359;-93
2023/08/15 11:39:17;;;;;;;;;1.00;1.00;;;;;;;;4862711;29;45563;-95
2023/08/15 11:45:21;;;;;;;;;1.00;1.00;;;;;;;;4958025;28;45645;-93
2023/08/15 11:47:59;;;;;;;;;0.00;0.00;;;;;;;;5019441;28;46259;-94
2023/08/15 11:50:25;;;;;;;;;0.00;0.00;;;;;;;;5045122;28;45351;-94
2023/08/15 11:52:51;;;;;;;;;0.00;0.00;;;;;;;;5030039;28;45404;-94
2023/08/15 11:55:18;;;;;;;;;0.00;0.00;;;;;;;;5062431;28;45511;-94
2023/08/15 11:57:46;;;;;;;;;0.00;0.00;;;;;;;;5035409;28;48074;-94
2023/08/15 12:00:19;;;;;;;;;0.00;0.00;;;;;;;;5025844;28;45222;-95
2023/08/15 12:03:05;;;;;;;;;0.00;0.00;;;;;;;;5036703;28;45328;-95
2023/08/15 12:05:51;;;;;;;;;;;;;;;;;;;;;
2023/08/15 12:11:20;;;;;;;;;0.00;0.00;;;;;;;;5079604;28;9897;-95
2023/08/15 12:13:48;;;;;;;;;0.00;0.00;;;;;;;;5098786;28;8749;-94
2023/08/15 12:16:19;;;;;;;;;0.00;0.00;;;;;;;;5079023;28;8812;-95
2023/08/15 12:19:00;;;;;;;;;0.00;0.00;;;;;;;;5054082;28;28580;-94
2023/08/15 12:21:25;;;;;;;;;0.00;0.00;;;;;;;;5074740;28;27122;-95
2023/08/15 12:23:56;;;;;;;;;0.00;0.00;;;;;;;;5064227;28;27619;-94
2023/08/15 12:27:09;;;;;;;;;;;;;;;;;;;;;
2023/08/15 12:30:02;;;;;;;;;1.00;1.00;;;;;;;;5086448;28;36329;-94
2023/08/15 12:36:20;;;;;;;;;0.00;0.00;;;;;;;;4977244;28;8826;-95
2023/08/15 12:38:46;;;;;;;;;0.00;0.00;;;;;;;;4970461;28;8801;-94
2023/08/15 12:41:13;;;;;;;;;0.00;0.00;;;;;;;;5056464;28;8849;-93
2023/08/15 12:43:40;;;;;;;;;0.00;0.00;;;;;;;;5069476;28;27723;-93
2023/08/15 12:46:06;;;;;;;;;0.00;0.00;;;;;;;;5057850;28;28591;-93
2023/08/15 12:48:31;;;;;;;;;0.00;0.00;;;;;;;;5060682;28;24482;-93
2023/08/15 12:50:56;;;;;;;;;0.00;0.00;;;;;;;;5065499;28;28733;-93
2023/08/15 12:53:23;;;;;;;;;0.00;0.00;;;;;;;;5058102;28;29550;-93
2023/08/15 12:55:48;;;;;;;;;0.00;0.00;;;;;;;;5067181;28;28498;-93
2023/08/15 12:58:13;;;;;;;;;1.33;0.00;;;;;;;;5091945;28;27859;-94
2023/08/15 13:00:41;;;;;;;;;0.00;0.00;;;;;;;;5080020;28;29283;-93
2023/08/15 13:03:06;;;;;;;;;1.00;1.00;;;;;;;;5081286;28;8770;-93
2023/08/15 13:05:32;;;;;;;;;0.00;0.00;;;;;;;;5067172;28;24108;-94
2023/08/15 13:07:57;;;;;;;;;0.00;0.00;;;;;;;;5065553;28;28336;-94
2023/08/15 13:10:22;;;;;;;;;0.00;0.00;;;;;;;;5050743;28;28400;-94
2023/08/15 13:12:47;;;;;;;;;0.00;0.00;;;;;;;;5040070;28;28466;-94
2023/08/15 13:15:13;;;;;;;;;0.00;0.00;;;;;;;;5040185;28;28422;-94
2023/08/15 13:17:38;;;;;;;;;0.00;0.00;;;;;;;;5063042;28;28364;-94
2023/08/15 13:20:04;;;;;;;;;0.00;0.00;;;;;;;;5049579;28;29672;-93
2023/08/15 13:22:29;;;;;;;;;0.00;0.00;;;;;;;;5057895;28;28599;-93
2023/08/15 13:24:54;;;;;;;;;0.00;0.00;;;;;;;;5049278;28;28334;-93
2023/08/15 13:27:19;;;;;;;;;0.00;0.00;;;;;;;;5047802;28;27872;-93
2023/08/15 13:29:45;;;;;;;;;0.00;0.00;;;;;;;;5077445;28;8795;-93
2023/08/15 13:32:12;;;;;;;;;0.00;0.00;;;;;;;;5077326;28;8799;-93
2023/08/15 13:34:38;;;;;;;;;0.00;0.00;;;;;;;;5059196;28;8755;-94
2023/08/15 13:37:03;;;;;;;;;0.00;0.00;;;;;;;;5041404;28;8906;-92
2023/08/15 13:39:28;;;;;;;;;0.00;0.00;;;;;;;;5053357;28;28437;-93
2023/08/15 13:41:54;;;;;;;;;0.00;0.00;;;;;;;;5055206;28;36221;-93
2023/08/15 13:44:24;;;;;;;;;0.00;0.00;;;;;;;;5052549;28;8804;-92
2023/08/15 13:46:50;;;;;;;;;0.00;0.00;;;;;;;;5045711;28;27641;-94
2023/08/15 13:49:15;;;;;;;;;0.00;0.00;;;;;;;;5038584;28;28546;-94
2023/08/15 13:51:43;;;;;;;;;0.00;0.00;;;;;;;;5058108;28;28396;-94
2023/08/15 13:54:08;;;;;;;;;0.00;0.00;;;;;;;;5046747;28;29382;-94
2023/08/15 13:56:46;;;;;;;;;;;;;;;;;;;;;
2023/08/15 13:59:15;;;;;;;;;0.00;0.00;;;;;;;;5043059;28;57989;-94
2023/08/15 14:01:50;;;;;;;;;0.00;0.00;;;;;;;;5019072;28;28367;-94
2023/08/15 14:04:18;;;;;;;;;1.00;1.00;;;;;;;;5043604;28;27682;-94
2023/08/15 14:07:27;;;;;;;;;0.25;0.00;;;;;;;;5056577;28;9450;-95
2023/08/15 14:09:51;;;;;;;;;0.00;0.00;;;;;;;;5059463;28;8844;-94
2023/08/15 14:12:19;;;;;;;;;0.00;0.00;;;;;;;;5057124;28;8758;-94
2023/08/15 14:14:44;;;;;;;;;0.00;0.00;;;;;;;;5047206;28;8817;-94
2023/08/15 14:17:10;;;;;;;;;0.00;0.00;;;;;;;;5056273;28;8792;-92
2023/08/15 14:19:35;;;;;;;;;0.00;0.00;;;;;;;;5043108;28;8821;-91
2023/08/15 14:22:00;;;;;;;;;0.00;0.00;;;;;;;;5078708;28;8803;-92
2023/08/15 14:24:25;;;;;;;;;0.00;0.00;;;;;;;;5069283;28;8832;-93
2023/08/15 14:26:51;;;;;;;;;0.00;0.00;;;;;;;;5057231;28;8824;-92
2023/08/15 14:29:18;;;;;;;;;0.00;0.00;;;;;;;;5079924;28;8803;-93
2023/08/15 14:31:43;;;;;;;;;0.00;0.00;;;;;;;;5058286;28;9687;-92
2023/08/15 14:34:09;;;;;;;;;0.00;0.00;;;;;;;;5080718;28;8783;-93
2023/08/15 14:36:35;;;;;;;;;0.00;0.00;;;;;;;;5075931;28;9525;-93
2023/08/15 14:39:00;;;;;;;;;0.00;0.00;;;;;;;;5078795;28;8789;-92
2023/08/15 14:41:26;;;;;;;;;0.00;0.00;;;;;;;;5076016;28;8792;-93
2023/08/15 14:43:51;;;;;;;;;0.00;0.00;;;;;;;;5082210;28;8826;-91
2023/08/15 14:46:16;;;;;;;;;0.00;0.00;;;;;;;;5087122;28;8806;-91
2023/08/15 14:48:41;;;;;;;;;1.00;1.00;;;;;;;;5075272;28;8840;-92
2023/08/15 14:51:07;;;;;;;;;0.00;0.00;;;;;;;;5062843;28;8873;-93
2023/08/15 14:53:32;;;;;;;;;0.33;0.33;;;;;;;;5077808;28;8838;-92
2023/08/15 14:55:58;;;;;;;;;0.00;0.00;;;;;;;;5059155;28;8853;-92
2023/08/15 14:58:23;;;;;;;;;0.00;0.00;;;;;;;;5065636;28;8786;-93
2023/08/15 15:00:49;;;;;;;;;0.00;0.00;;;;;;;;5061699;28;10862;-93
2023/08/15 15:03:17;;;;;;;;;0.00;0.00;;;;;;;;5065876;28;8835;-94
2023/08/15 15:05:42;;;;;;;;;0.00;0.00;;;;;;;;5060976;28;8921;-92
2023/08/15 15:08:07;;;;;;;;;0.00;0.00;;;;;;;;5073608;28;8875;-92
2023/08/15 15:10:33;;;;;;;;;0.67;0.67;;;;;;;;5087186;28;8802;-92
2023/08/15 15:12:59;;;;;;;;;0.00;0.00;;;;;;;;5082779;28;8813;-92
2023/08/15 15:15:34;;;;;;;;;0.33;0.33;;;;;;;;5072693;28;8827;-92
2023/08/15 15:17:59;;;;;;;;;0.00;0.00;;;;;;;;5090955;28;8879;-91
2023/08/15 15:20:24;;;;;;;;;0.00;0.00;;;;;;;;5076386;28;8996;-91
2023/08/15 15:22:49;;;;;;;;;0.00;0.00;;;;;;;;5080311;28;8853;-91
2023/08/15 15:25:15;;;;;;;;;0.00;0.00;;;;;;;;5093684;28;8823;-91
2023/08/15 15:27:40;;;;;;;;;0.00;0.00;;;;;;;;5060913;28;8810;-91
2023/08/15 15:30:07;;;;;;;;;0.50;0.50;;;;;;;;5083328;28;8897;-91
2023/08/15 15:32:33;;;;;;;;;1.00;1.00;;;;;;;;5090737;28;8877;-91